Indiantown, Florida
Current Conditions -  °F | °C
As of 4:47 PM on Thursday 27 Nov 2014 (Local Time) from KSUA Reporting Station
Clear Clear  
Wind Chill: 68°   Ceiling: Unl
Heat Index: 68°   Visibility: 10mi
Dew Point: 46°   Wind: 8mph
Humidity: 46%   Direction: 310°NW
Pressure: 30.17"   Gusts: NA
Location:  27.03°N, 80.49°W
Report Text: KSUA 272147Z 31007KT 10SM SKC 20/08 A3017
Loading
Personal Weather Stations






























Interactive Weather Map New forecast layout! Learn more

10-Day Weather Forecast

Advertisements
Track Severe Weather on mobile